Terminal Aerodrome Forecast
Issued by NWS Caribou, ME

Home | Current Version | Previous Version | Text Only | Print | Product List | Glossary On
Versions: 1 2 3 4 5 6 7 8 9 10 11 12 13 14 15 16 17 18
157
FTUS41 KCAR 251733
TAFCAR
TAF
KCAR 251733Z 2518/2618 24010KT P6SM SCT050
     FM252100 24007KT P6SM BKN045
     FM260700 25005KT P6SM VCSH SCT025 BKN035
     FM261400 30006KT P6SM SCT035=

USA.gov is the U.S. government's official web portal to all federal, state and local government web resources and services.